Time;durP1;ratioP1;P1;durP2;ratioP2;P2;SDS_P1;SDS_P2;PMS_P1;PMS_P2;Temp;Humidity;BMP_temperature;BMP_pressure;BME280_temperature;BME280_humidity;BME280_pressure;Samples;Min_cycle;Max_cycle;Signal;HPM_P1;HPM_P2
2021/03/03 19:14:52;;;;;;;10.13;4.90;;;;;;;24.48;28.15;157580.19;1691791;83;21731;-74
2021/03/03 19:17:25;;;;;;;10.72;5.53;;;;;;;24.46;28.13;157574.92;1750821;80;21295;-73
2021/03/03 19:19:58;;;;;;;15.53;6.83;;;;;;;24.41;28.07;157561.58;1759391;80;21279;-75
2021/03/03 19:22:31;;;;;;;13.28;6.40;;;;;;;24.42;28.19;157564.23;1763924;80;21374;-72
2021/03/03 19:25:06;;;;;;;10.68;5.92;;;;;;;24.33;28.27;157540.38;1763791;80;21829;-73
2021/03/03 19:27:38;;;;;;;12.47;5.78;;;;;;;24.36;28.31;157546.98;1762585;79;21423;-74
2021/03/03 19:30:12;;;;;;;16.17;6.80;;;;;;;24.36;28.24;157546.98;1763673;80;21293;-77
2021/03/03 19:32:45;;;;;;;13.25;6.55;;;;;;;24.32;28.34;157536.36;1772179;79;21367;-77
2021/03/03 19:35:18;;;;;;;16.30;6.97;;;;;;;24.32;28.38;157537.72;1763206;80;22203;-77
2021/03/03 19:37:50;;;;;;;13.10;6.20;;;;;;;24.36;28.30;157546.98;1761294;80;21926;-75
2021/03/03 19:40:22;;;;;;;15.08;6.47;;;;;;;24.21;28.44;157508.53;1758139;80;21756;-69
2021/03/03 19:42:56;;;;;;;11.80;5.70;;;;;;;24.17;28.46;157496.61;1767235;79;21210;-78
2021/03/03 19:45:29;;;;;;;10.78;5.80;;;;;;;24.04;28.54;157462.13;1763780;80;21784;-75
2021/03/03 19:48:03;;;;;;;13.45;6.45;;;;;;;24.01;28.54;157455.52;1770777;79;21271;-74
2021/03/03 19:50:37;;;;;;;14.03;7.00;;;;;;;24.04;28.52;157462.13;1766553;80;21204;-73
2021/03/03 19:53:10;;;;;;;15.68;7.75;;;;;;;24.15;28.48;157491.30;1754234;80;21331;-77
2021/03/03 19:55:43;;;;;;;15.28;7.85;;;;;;;24.03;28.59;157460.77;1766267;79;21357;-75
2021/03/03 19:58:17;;;;;;;20.65;8.40;;;;;;;24.03;28.56;157459.47;1763706;79;21196;-74
2021/03/03 20:00:51;;;;;;;16.95;8.05;;;;;;;24.09;28.48;157476.70;1762877;79;21237;-73
2021/03/03 20:03:26;;;;;;;20.32;9.15;;;;;;;23.87;28.65;157418.38;1775489;78;21218;-75
2021/03/03 20:05:59;;;;;;;16.42;8.18;;;;;;;23.91;28.62;157427.64;1780275;78;21249;-75
2021/03/03 20:08:32;;;;;;;14.25;7.78;;;;;;;23.88;28.62;157419.67;1779569;79;21304;-75
2021/03/03 20:11:07;;;;;;;17.32;8.48;;;;;;;23.79;28.68;157395.81;1793855;79;21236;-73
2021/03/03 20:13:40;;;;;;;15.63;8.20;;;;;;;23.85;28.65;157411.70;1777549;79;21213;-76
2021/03/03 20:16:13;;;;;;;14.98;7.45;;;;;;;23.74;28.73;157382.48;1791318;79;21257;-77
2021/03/03 20:18:46;;;;;;;19.82;8.35;;;;;;;23.67;28.77;157363.94;1795602;79;21428;-81
2021/03/03 20:21:19;;;;;;;18.27;8.80;;;;;;;23.70;28.79;157373.22;1788091;79;21292;-79
2021/03/03 20:23:55;;;;;;;19.45;8.53;;;;;;;23.73;28.81;157379.83;1789428;79;21220;-80
2021/03/03 20:26:29;;;;;;;16.40;8.30;;;;;;;23.79;28.78;157397.13;1783803;79;21204;-81
2021/03/03 20:29:02;;;;;;;19.45;9.80;;;;;;;23.68;28.82;157366.59;1789759;79;21242;-78
2021/03/03 20:31:36;;;;;;;17.65;8.90;;;;;;;23.80;28.75;157399.78;1796495;78;22057;-78
2021/03/03 20:34:09;;;;;;;17.65;9.05;;;;;;;23.76;28.79;157389.20;1793026;78;21257;-79
2021/03/03 20:36:41;;;;;;;17.65;8.20;;;;;;;23.74;28.79;157383.84;1790841;78;21768;-80
2021/03/03 20:39:16;;;;;;;18.60;9.35;;;;;;;23.73;28.79;157381.19;1786193;78;21209;-78
2021/03/03 20:41:49;;;;;;;18.42;9.18;;;;;;;23.73;28.72;157379.83;1793372;79;21419;-79
2021/03/03 20:44:21;;;;;;;20.00;8.88;;;;;;;23.72;28.79;157377.22;1726211;81;21291;-77
2021/03/03 20:46:54;;;;;;;18.98;8.90;;;;;;;23.74;28.81;157382.48;1752892;79;21272;-75
2021/03/03 20:49:27;;;;;;;19.55;8.95;;;;;;;23.72;28.81;157378.53;1785993;79;21185;-75
2021/03/03 20:52:00;;;;;;;22.25;8.48;;;;;;;23.72;28.75;157377.22;1789409;79;21158;-75
2021/03/03 20:54:33;;;;;;;20.25;10.05;;;;;;;23.69;28.77;157369.25;1792902;78;21317;-76
2021/03/03 20:57:06;;;;;;;17.07;8.95;;;;;;;23.55;28.85;157332.13;1790050;78;21474;-75
2021/03/03 20:59:38;;;;;;;21.42;9.63;;;;;;;23.47;28.93;157309.58;1776321;79;21188;-75
2021/03/03 21:02:10;;;;;;;18.55;8.88;;;;;;;23.41;29.05;157293.70;1794007;79;21379;-76
2021/03/03 21:04:43;;;;;;;18.77;8.95;;;;;;;23.49;28.99;157316.25;1796254;79;21222;-75
2021/03/03 21:07:15;;;;;;;18.50;9.30;;;;;;;23.47;29.04;157309.58;1782466;79;21268;-75
2021/03/03 21:09:49;;;;;;;20.55;10.58;;;;;;;23.42;29.13;157296.36;1770718;79;21228;-76
2021/03/03 21:12:21;;;;;;;23.95;12.45;;;;;;;23.34;29.13;157276.47;1784222;79;21321;-75
2021/03/03 21:14:54;;;;;;;26.37;13.38;;;;;;;23.34;29.01;157275.11;1773718;79;21299;-75
2021/03/03 21:17:26;;;;;;;30.45;13.50;;;;;;;23.38;28.87;157285.73;1785001;78;21790;-75
2021/03/03 21:19:59;;;;;;;33.63;16.55;;;;;;;23.21;29.13;157242.00;1783820;79;21216;-75
2021/03/03 21:22:32;;;;;;;41.80;17.40;;;;;;;23.20;29.11;157239.34;1780057;79;21402;-76
2021/03/03 21:25:05;;;;;;;44.33;20.27;;;;;;;23.11;29.17;157215.50;1769701;78;21408;-75
2021/03/03 21:27:38;;;;;;;46.28;18.90;;;;;;;23.08;29.07;157207.55;1755235;79;21443;-76
2021/03/03 21:30:12;;;;;;;45.90;18.55;;;;;;;22.96;29.22;157175.69;1785550;79;21349;-75
2021/03/03 21:32:44;;;;;;;48.13;20.48;;;;;;;22.88;29.29;157153.16;1773545;79;21240;-75
2021/03/03 21:35:18;;;;;;;60.78;29.27;;;;;;;22.56;29.57;157067.09;1776305;79;21241;-75
2021/03/03 21:37:50;;;;;;;65.87;28.52;;;;;;;22.39;29.58;157023.38;1784919;79;21319;-75
2021/03/03 21:40:22;;;;;;;57.30;24.37;;;;;;;22.25;29.97;156984.89;1762518;79;21617;-75
2021/03/03 21:42:55;;;;;;;74.72;32.73;;;;;;;22.22;30.13;156976.98;1761596;79;21345;-75
2021/03/03 21:45:29;;;;;;;61.48;25.72;;;;;;;22.23;30.01;156980.94;1763711;79;21400;-75
2021/03/03 21:48:03;;;;;;;56.63;22.27;;;;;;;22.14;30.29;156955.77;1765035;79;21336;-75
2021/03/03 21:50:36;;;;;;;66.28;26.62;;;;;;;22.19;30.17;156969.03;1759619;79;21226;-76
2021/03/03 21:53:09;;;;;;;45.83;20.50;;;;;;;22.16;30.12;156962.38;1773736;79;21188;-75
2021/03/03 21:55:41;;;;;;;44.98;18.70;;;;;;;22.08;30.50;156939.91;1755612;80;21197;-75
2021/03/03 21:58:14;;;;;;;54.50;22.37;;;;;;;22.05;30.50;156933.25;1782923;79;21304;-76
2021/03/03 22:00:47;;;;;;;60.17;23.75;;;;;;;22.07;30.53;156937.25;1759416;79;21371;-75
2021/03/03 22:03:20;;;;;;;51.42;19.90;;;;;;;22.15;30.45;156959.77;1788730;79;21349;-75
2021/03/03 22:05:52;;;;;;;49.93;20.05;;;;;;;22.14;30.54;156955.77;1781573;79;21680;-76
2021/03/03 22:08:25;;;;;;;47.35;17.73;;;;;;;22.12;30.51;156950.45;1786877;79;21214;-75
2021/03/03 22:10:58;;;;;;;55.98;22.73;;;;;;;22.07;30.65;156938.55;1757084;79;21296;-76
2021/03/03 22:13:31;;;;;;;44.25;19.82;;;;;;;22.07;30.56;156937.25;1775246;79;21858;-75
2021/03/03 22:16:05;;;;;;;44.75;18.15;;;;;;;21.98;30.68;156913.42;1783619;79;21679;-75
2021/03/03 22:18:37;;;;;;;53.02;19.92;;;;;;;21.91;30.79;156896.22;1728503;81;21337;-75
2021/03/03 22:21:11;;;;;;;53.70;19.75;;;;;;;21.91;30.78;156896.22;1750890;80;21450;-75
2021/03/03 22:23:43;;;;;;;53.28;21.15;;;;;;;22.01;30.76;156921.33;1780907;79;21408;-75
2021/03/03 22:26:16;;;;;;;41.88;17.52;;;;;;;21.99;30.81;156916.03;1788099;79;21922;-75
2021/03/03 22:28:48;;;;;;;47.60;18.87;;;;;;;21.90;30.99;156892.22;1779344;79;21396;-75
2021/03/03 22:31:20;;;;;;;52.55;20.75;;;;;;;21.94;30.90;156904.13;1708948;83;21168;-75
2021/03/03 22:33:53;;;;;;;48.58;19.02;;;;;;;21.95;30.86;156906.77;1722031;82;21412;-75
2021/03/03 22:36:25;;;;;;;44.40;19.95;;;;;;;21.97;30.88;156912.06;1759582;81;21448;-75
2021/03/03 22:38:58;;;;;;;46.88;19.23;;;;;;;21.96;30.97;156908.13;1708542;82;21733;-75
2021/03/03 22:41:30;;;;;;;41.18;17.07;;;;;;;21.97;30.97;156910.78;1739094;81;21384;-76
2021/03/03 22:44:03;;;;;;;41.10;16.45;;;;;;;21.99;30.96;156916.03;1729336;81;21430;-75
2021/03/03 22:46:37;;;;;;;45.83;17.65;;;;;;;22.00;30.96;156918.69;1702413;81;21230;-76
2021/03/03 22:49:10;;;;;;;42.08;17.12;;;;;;;21.99;31.07;156917.37;1750681;81;21455;-76
2021/03/03 22:51:43;;;;;;;40.58;17.60;;;;;;;22.01;31.01;156921.33;1719607;82;21338;-76
2021/03/03 22:54:15;;;;;;;42.50;17.62;;;;;;;22.05;30.85;156933.25;1699222;83;21891;-76
2021/03/03 22:56:47;;;;;;;42.20;17.52;;;;;;;22.03;30.88;156927.98;1753137;80;21323;-76
2021/03/03 22:59:19;;;;;;;36.38;16.48;;;;;;;22.08;30.81;156941.19;1740672;80;21819;-76
2021/03/03 23:01:52;;;;;;;41.75;18.10;;;;;;;22.07;30.87;156937.25;1759216;79;21336;-76
2021/03/03 23:04:25;;;;;;;32.58;15.83;;;;;;;21.99;30.98;156917.37;1747688;79;21354;-74
2021/03/03 23:06:57;;;;;;;33.53;15.28;;;;;;;22.06;30.95;156935.89;1780511;79;21351;-75
2021/03/03 23:09:30;;;;;;;35.50;15.72;;;;;;;22.01;31.03;156921.33;1793012;79;21760;-75
2021/03/03 23:12:05;;;;;;;32.10;15.45;;;;;;;21.95;31.09;156905.47;1773398;79;21182;-76
2021/03/03 23:14:40;;;;;;;29.82;14.18;;;;;;;21.90;31.16;156893.56;1768608;79;21339;-76
2021/03/03 23:17:13;;;;;;;28.80;13.45;;;;;;;21.87;31.22;156884.31;1764727;79;21362;-76
2021/03/03 23:19:46;;;;;;;34.20;13.68;;;;;;;21.78;31.37;156860.44;1786679;79;21677;-75
2021/03/03 23:22:18;;;;;;;35.35;15.70;;;;;;;21.76;31.32;156853.84;1770628;79;21337;-76
2021/03/03 23:24:50;;;;;;;36.35;14.65;;;;;;;21.82;31.29;156871.05;1769464;79;21174;-77
2021/03/03 23:27:23;;;;;;;42.33;17.90;;;;;;;21.95;31.21;156905.47;1773843;79;21431;-76
2021/03/03 23:29:56;;;;;;;48.48;21.37;;;;;;;21.95;31.11;156906.77;1777160;79;21380;-76
2021/03/03 23:32:28;;;;;;;41.48;19.75;;;;;;;21.89;31.05;156889.56;1770750;79;21843;-74
2021/03/03 23:35:01;;;;;;;37.55;17.73;;;;;;;21.84;31.04;156876.34;1765858;80;21841;-76
2021/03/03 23:37:33;;;;;;;38.53;14.85;;;;;;;21.78;31.15;156860.44;1778229;79;21359;-76
2021/03/03 23:40:12;;;;;;;31.57;14.68;;;;;;;21.76;31.15;156853.84;1779989;79;21217;-76
2021/03/03 23:42:44;;;;;;;29.30;13.43;;;;;;;21.73;31.12;156847.23;1778585;79;21823;-76
2021/03/03 23:45:21;;;;;;;31.02;13.22;;;;;;;21.63;31.27;156819.41;1767466;79;21193;-76
2021/03/03 23:47:54;;;;;;;27.10;13.10;;;;;;;21.64;31.24;156822.06;1774226;79;21377;-76
2021/03/03 23:50:31;;;;;;;26.00;13.30;;;;;;;21.69;31.21;156835.33;1785132;79;21359;-76
2021/03/03 23:53:04;;;;;;;27.20;13.10;;;;;;;21.71;31.18;156840.58;1789019;79;21241;-76
2021/03/03 23:55:39;;;;;;;27.40;12.93;;;;;;;21.77;31.19;156856.48;1782683;79;21333;-76
2021/03/03 23:58:11;;;;;;;27.55;12.53;;;;;;;21.84;31.09;156876.34;1774310;79;21668;-76
